PWSweather.com
Personal Weather Stations
Station Observations
KNCGREEN1
Sw Greensboro, Greensboro, NC 27407

Sw GreensboroGreensboro, NC 27407

Lat: 36.04, Lon: -79.87

Elevation: 870

Station Type: Davis

http://www.weathertrek.com

Latest ConditionsUpdated 6:00:36 AM EDT Thursday, Aug 21, 2014
Currently Today's Max Today's Min Today's Average
Temperature 71.1°F21.7°C 77.4°F25.2°C 71.1°F21.7°C 73.5°F23.1°C
Dew Point 66.7°F19.3°C 70.9°F21.6°C 66.7°F19.3°C 69.7°F20.9°C
Winds Calm Calm Calm WCalm W - Calm Calm
Wind Gusts -- -- - -
Humidity 86% 93% 80% 88%
Pressure 29.93 in1013.5 mb 29.93 in1013.5 mb 29.89 in1012.2 mb -
Hour Temp Dew Point Humidity Winds Wind Gusts Pressure Precip Precip Rate Daily Precip Total
06:00 AM 71.1°F21.7°C 66.7°F19.3°C 86% Calm Calm -- 29.93 in1013.5 mb 0.00 in0.0 mm 0.00 in/hr0.0 mm/hr 0.00 in0.0 mm
05:45 AM 71.1°F21.7°C 67.7°F19.8°C 89% Calm Calm -- 29.93 in1013.5 mb 0.00 in0.0 mm 0.00 in/hr0.0 mm/hr 0.00 in0.0 mm
05:30 AM 71.8°F22.1°C 69.4°F20.8°C 92% Calm Calm -- 29.92 in1013.2 mb 0.00 in0.0 mm 0.00 in/hr0.0 mm/hr 0.00 in0.0 mm
05:15 AM 72.1°F22.3°C 69.7°F20.9°C 92% Calm Calm -- 29.92 in1013.2 mb 0.00 in0.0 mm 0.00 in/hr0.0 mm/hr 0.00 in0.0 mm
05:00 AM 72.3°F22.4°C 69.9°F21.1°C 92% Calm Calm -- 29.92 in1013.2 mb 0.00 in0.0 mm 0.00 in/hr0.0 mm/hr 0.00 in0.0 mm
04:45 AM 72.1°F22.3°C 69.7°F20.9°C 92% Calm Calm -- 29.91 in1012.9 mb 0.00 in0.0 mm 0.00 in/hr0.0 mm/hr 0.00 in0.0 mm
04:30 AM 72.3°F22.4°C 69.9°F21.1°C 92% Calm Calm -- 29.91 in1012.9 mb 0.00 in0.0 mm 0.00 in/hr0.0 mm/hr 0.00 in0.0 mm
04:15 AM 72.8°F22.7°C 70.3°F21.3°C 92% Calm Calm -- 29.91 in1012.9 mb 0.00 in0.0 mm 0.00 in/hr0.0 mm/hr 0.00 in0.0 mm
04:00 AM 72.8°F22.7°C 70.7°F21.5°C 93% Calm Calm -- 29.90 in1012.5 mb 0.00 in0.0 mm 0.00 in/hr0.0 mm/hr 0.00 in0.0 mm
03:45 AM 72.3°F22.4°C 70.2°F21.2°C 93% Calm Calm -- 29.90 in1012.5 mb 0.00 in0.0 mm 0.00 in/hr0.0 mm/hr 0.00 in0.0 mm
03:30 AM 72.0°F22.2°C 69.6°F20.9°C 92% Calm Calm -- 29.90 in1012.5 mb 0.00 in0.0 mm 0.00 in/hr0.0 mm/hr 0.00 in0.0 mm
03:15 AM 72.0°F22.2°C 69.2°F20.7°C 91% Calm Calm -- 29.90 in1012.5 mb 0.00 in0.0 mm 0.00 in/hr0.0 mm/hr 0.00 in0.0 mm
03:00 AM 72.3°F22.4°C 69.5°F20.8°C 91% Calm Calm -- 29.90 in1012.5 mb 0.00 in0.0 mm 0.00 in/hr0.0 mm/hr 0.00 in0.0 mm
02:45 AM 72.0°F22.2°C 69.2°F20.7°C 91% Calm Calm -- 29.90 in1012.5 mb 0.00 in0.0 mm 0.00 in/hr0.0 mm/hr 0.00 in0.0 mm
02:30 AM 72.1°F22.3°C 69.0°F20.6°C 90% Calm Calm -- 29.90 in1012.5 mb 0.00 in0.0 mm 0.00 in/hr0.0 mm/hr 0.00 in0.0 mm
02:15 AM 72.3°F22.4°C 69.2°F20.7°C 90% Calm Calm -- 29.90 in1012.5 mb 0.00 in0.0 mm 0.00 in/hr0.0 mm/hr 0.00 in0.0 mm
02:00 AM 72.8°F22.7°C 69.4°F20.8°C 89% Calm Calm -- 29.91 in1012.9 mb 0.00 in0.0 mm 0.00 in/hr0.0 mm/hr 0.00 in0.0 mm
01:45 AM 73.2°F22.9°C 67.4°F19.7°C 82% Calm Calm -- 29.90 in1012.5 mb 0.00 in0.0 mm 0.00 in/hr0.0 mm/hr 0.00 in0.0 mm
01:30 AM 76.7°F24.8°C 70.8°F21.6°C 82% Calm Calm -- 29.89 in1012.2 mb 0.00 in0.0 mm 0.00 in/hr0.0 mm/hr 0.00 in0.0 mm
01:15 AM 76.7°F24.8°C 70.8°F21.6°C 82% Calm Calm -- 29.90 in1012.5 mb 0.00 in0.0 mm 0.00 in/hr0.0 mm/hr 0.00 in0.0 mm
01:00 AM 76.7°F24.8°C 70.8°F21.6°C 82% Calm Calm -- 29.91 in1012.9 mb 0.00 in0.0 mm 0.00 in/hr0.0 mm/hr 0.00 in0.0 mm
12:45 AM 76.7°F24.8°C 70.8°F21.6°C 82% Calm Calm -- 29.91 in1012.9 mb 0.00 in0.0 mm 0.00 in/hr0.0 mm/hr 0.00 in0.0 mm
12:30 AM 76.7°F24.8°C 70.4°F21.3°C 81% Calm Calm -- 29.91 in1012.9 mb 0.00 in0.0 mm 0.00 in/hr0.0 mm/hr 0.00 in0.0 mm
12:15 AM 77.2°F25.1°C 70.9°F21.6°C 81% Calm Calm -- 29.91 in1012.9 mb 0.00 in0.0 mm 0.00 in/hr0.0 mm/hr 0.00 in0.0 mm
12:00 AM 77.4°F25.2°C 70.8°F21.6°C 80% Calm Calm -- 29.92 in1013.2 mb 0.00 in0.0 mm 0.00 in/hr0.0 mm/hr 0.00 in0.0 mm